sensor_id;sensor_type;location;lat;lon;timestamp;temperature;humidity
38606;DHT22;24365;48.446;8.850;2023-05-16T00:02:18;11.20;83.10
38606;DHT22;24365;48.446;8.850;2023-05-16T00:07:19;11.30;83.20
38606;DHT22;24365;48.446;8.850;2023-05-16T00:12:20;11.30;83.10
38606;DHT22;24365;48.446;8.850;2023-05-16T00:17:22;11.30;83.30
38606;DHT22;24365;48.446;8.850;2023-05-16T00:22:23;11.30;83.50
38606;DHT22;24365;48.446;8.850;2023-05-16T00:27:25;11.30;82.90
38606;DHT22;24365;48.446;8.850;2023-05-16T00:32:26;11.30;83.00
38606;DHT22;24365;48.446;8.850;2023-05-16T00:37:28;11.20;83.30
38606;DHT22;24365;48.446;8.850;2023-05-16T00:42:29;11.20;83.50
38606;DHT22;24365;48.446;8.850;2023-05-16T00:47:31;11.10;84.00
38606;DHT22;24365;48.446;8.850;2023-05-16T00:52:33;11.10;84.20
38606;DHT22;24365;48.446;8.850;2023-05-16T00:57:37;11.10;83.60
38606;DHT22;24365;48.446;8.850;2023-05-16T01:02:40;11.10;83.50
38606;DHT22;24365;48.446;8.850;2023-05-16T01:07:41;11.10;83.60
38606;DHT22;24365;48.446;8.850;2023-05-16T01:13:00;11.10;83.70
38606;DHT22;24365;48.446;8.850;2023-05-16T01:28:28;11.00;83.60
38606;DHT22;24365;48.446;8.850;2023-05-16T01:33:29;11.00;84.00
38606;DHT22;24365;48.446;8.850;2023-05-16T01:38:38;11.00;84.00
38606;DHT22;24365;48.446;8.850;2023-05-16T01:43:44;11.00;84.10
38606;DHT22;24365;48.446;8.850;2023-05-16T01:49:01;10.90;84.10
38606;DHT22;24365;48.446;8.850;2023-05-16T01:54:05;11.00;84.30
38606;DHT22;24365;48.446;8.850;2023-05-16T01:59:08;10.90;84.00
38606;DHT22;24365;48.446;8.850;2023-05-16T02:04:11;10.90;84.00
38606;DHT22;24365;48.446;8.850;2023-05-16T02:09:16;10.90;84.10
38606;DHT22;24365;48.446;8.850;2023-05-16T02:14:16;10.90;84.10
38606;DHT22;24365;48.446;8.850;2023-05-16T02:19:17;10.80;84.30
38606;DHT22;24365;48.446;8.850;2023-05-16T02:24:18;10.80;84.10
38606;DHT22;24365;48.446;8.850;2023-05-16T02:29:19;10.90;84.60
38606;DHT22;24365;48.446;8.850;2023-05-16T02:34:21;10.80;84.40
38606;DHT22;24365;48.446;8.850;2023-05-16T02:39:22;10.80;84.50
38606;DHT22;24365;48.446;8.850;2023-05-16T02:44:25;10.80;84.60
38606;DHT22;24365;48.446;8.850;2023-05-16T02:49:26;10.80;84.70
38606;DHT22;24365;48.446;8.850;2023-05-16T02:54:27;10.80;84.50
38606;DHT22;24365;48.446;8.850;2023-05-16T02:59:28;10.80;84.80
38606;DHT22;24365;48.446;8.850;2023-05-16T03:04:29;10.80;84.70
38606;DHT22;24365;48.446;8.850;2023-05-16T03:09:30;10.80;84.80
38606;DHT22;24365;48.446;8.850;2023-05-16T03:14:31;10.80;84.90
38606;DHT22;24365;48.446;8.850;2023-05-16T03:19:31;10.70;85.20
38606;DHT22;24365;48.446;8.850;2023-05-16T03:24:34;10.70;85.40
38606;DHT22;24365;48.446;8.850;2023-05-16T03:29:35;10.70;85.30
38606;DHT22;24365;48.446;8.850;2023-05-16T03:34:38;10.70;85.00
38606;DHT22;24365;48.446;8.850;2023-05-16T03:39:40;10.70;85.20
38606;DHT22;24365;48.446;8.850;2023-05-16T03:44:43;10.60;85.10
38606;DHT22;24365;48.446;8.850;2023-05-16T03:49:44;10.70;85.30
38606;DHT22;24365;48.446;8.850;2023-05-16T03:54:45;10.70;85.40
38606;DHT22;24365;48.446;8.850;2023-05-16T03:59:47;10.60;85.40
38606;DHT22;24365;48.446;8.850;2023-05-16T04:04:48;10.60;85.40
38606;DHT22;24365;48.446;8.850;2023-05-16T04:09:50;10.60;85.50
38606;DHT22;24365;48.446;8.850;2023-05-16T04:14:51;10.70;85.80
38606;DHT22;24365;48.446;8.850;2023-05-16T04:19:53;10.70;86.10
38606;DHT22;24365;48.446;8.850;2023-05-16T04:24:55;10.70;85.90
38606;DHT22;24365;48.446;8.850;2023-05-16T04:29:57;10.70;85.90
38606;DHT22;24365;48.446;8.850;2023-05-16T04:34:59;10.70;86.00
38606;DHT22;24365;48.446;8.850;2023-05-16T04:40:01;10.70;85.90
38606;DHT22;24365;48.446;8.850;2023-05-16T04:45:02;10.70;86.20
38606;DHT22;24365;48.446;8.850;2023-05-16T04:50:03;10.70;86.00
38606;DHT22;24365;48.446;8.850;2023-05-16T04:55:06;10.70;86.50
38606;DHT22;24365;48.446;8.850;2023-05-16T05:00:07;10.80;86.80
38606;DHT22;24365;48.446;8.850;2023-05-16T05:05:11;10.80;87.20
38606;DHT22;24365;48.446;8.850;2023-05-16T05:10:12;10.90;86.50
38606;DHT22;24365;48.446;8.850;2023-05-16T05:15:13;10.90;86.50
38606;DHT22;24365;48.446;8.850;2023-05-16T05:20:14;10.90;86.50
38606;DHT22;24365;48.446;8.850;2023-05-16T05:25:15;10.90;86.20
38606;DHT22;24365;48.446;8.850;2023-05-16T05:30:17;11.00;86.60
38606;DHT22;24365;48.446;8.850;2023-05-16T05:35:18;11.00;86.50
38606;DHT22;24365;48.446;8.850;2023-05-16T05:40:19;11.00;90.10
38606;DHT22;24365;48.446;8.850;2023-05-16T05:45:20;10.90;90.40
38606;DHT22;24365;48.446;8.850;2023-05-16T05:50:21;11.00;90.60
38606;DHT22;24365;48.446;8.850;2023-05-16T05:55:22;11.00;90.90
38606;DHT22;24365;48.446;8.850;2023-05-16T06:00:23;11.00;90.40
38606;DHT22;24365;48.446;8.850;2023-05-16T06:05:24;11.00;89.90
38606;DHT22;24365;48.446;8.850;2023-05-16T06:10:25;11.00;90.20
38606;DHT22;24365;48.446;8.850;2023-05-16T06:15:26;11.10;90.00
38606;DHT22;24365;48.446;8.850;2023-05-16T06:20:27;11.10;88.90
38606;DHT22;24365;48.446;8.850;2023-05-16T06:25:28;11.10;88.80
38606;DHT22;24365;48.446;8.850;2023-05-16T06:30:30;11.20;88.20
38606;DHT22;24365;48.446;8.850;2023-05-16T06:35:31;11.20;87.20
38606;DHT22;24365;48.446;8.850;2023-05-16T06:40:31;11.20;87.60
38606;DHT22;24365;48.446;8.850;2023-05-16T06:45:33;11.20;88.90
38606;DHT22;24365;48.446;8.850;2023-05-16T06:50:34;11.20;88.00
38606;DHT22;24365;48.446;8.850;2023-05-16T06:55:35;11.30;86.50
38606;DHT22;24365;48.446;8.850;2023-05-16T07:00:36;11.30;85.40
38606;DHT22;24365;48.446;8.850;2023-05-16T07:05:37;11.30;85.10
38606;DHT22;24365;48.446;8.850;2023-05-16T07:10:38;11.30;85.00
38606;DHT22;24365;48.446;8.850;2023-05-16T07:15:39;11.40;83.50
38606;DHT22;24365;48.446;8.850;2023-05-16T07:20:40;11.30;84.10
38606;DHT22;24365;48.446;8.850;2023-05-16T07:25:41;11.30;84.30
38606;DHT22;24365;48.446;8.850;2023-05-16T07:30:43;11.30;84.00
38606;DHT22;24365;48.446;8.850;2023-05-16T07:35:44;11.30;84.20
38606;DHT22;24365;48.446;8.850;2023-05-16T07:40:46;11.30;84.30
38606;DHT22;24365;48.446;8.850;2023-05-16T07:45:47;11.30;85.10
38606;DHT22;24365;48.446;8.850;2023-05-16T07:50:48;11.30;85.10
38606;DHT22;24365;48.446;8.850;2023-05-16T07:55:49;11.30;85.70
38606;DHT22;24365;48.446;8.850;2023-05-16T08:00:50;11.20;87.10
38606;DHT22;24365;48.446;8.850;2023-05-16T08:05:51;11.30;84.30
38606;DHT22;24365;48.446;8.850;2023-05-16T08:10:52;11.40;85.30
38606;DHT22;24365;48.446;8.850;2023-05-16T08:15:53;11.60;82.80
38606;DHT22;24365;48.446;8.850;2023-05-16T08:20:54;11.60;83.90
38606;DHT22;24365;48.446;8.850;2023-05-16T08:25:55;11.80;82.10
38606;DHT22;24365;48.446;8.850;2023-05-16T08:30:56;11.90;79.90
38606;DHT22;24365;48.446;8.850;2023-05-16T08:35:58;11.80;80.90
38606;DHT22;24365;48.446;8.850;2023-05-16T08:41:00;11.80;80.40
38606;DHT22;24365;48.446;8.850;2023-05-16T08:46:01;11.70;81.00
38606;DHT22;24365;48.446;8.850;2023-05-16T08:51:05;11.70;80.50
38606;DHT22;24365;48.446;8.850;2023-05-16T08:56:08;11.80;79.60
38606;DHT22;24365;48.446;8.850;2023-05-16T09:01:10;11.70;79.80
38606;DHT22;24365;48.446;8.850;2023-05-16T09:06:11;11.70;79.70
38606;DHT22;24365;48.446;8.850;2023-05-16T09:11:12;11.60;79.70
38606;DHT22;24365;48.446;8.850;2023-05-16T09:16:18;11.50;79.60
38606;DHT22;24365;48.446;8.850;2023-05-16T09:21:19;11.40;79.80
38606;DHT22;24365;48.446;8.850;2023-05-16T09:26:21;11.40;81.70
38606;DHT22;24365;48.446;8.850;2023-05-16T09:31:24;11.30;83.10
38606;DHT22;24365;48.446;8.850;2023-05-16T09:36:31;11.30;81.70
38606;DHT22;24365;48.446;8.850;2023-05-16T09:41:33;11.50;81.80
38606;DHT22;24365;48.446;8.850;2023-05-16T09:46:37;11.50;82.60
38606;DHT22;24365;48.446;8.850;2023-05-16T09:51:40;11.50;83.00
38606;DHT22;24365;48.446;8.850;2023-05-16T09:56:48;11.40;81.90
38606;DHT22;24365;48.446;8.850;2023-05-16T10:01:49;11.60;81.00
38606;DHT22;24365;48.446;8.850;2023-05-16T10:06:56;11.50;82.50
38606;DHT22;24365;48.446;8.850;2023-05-16T10:12:02;11.50;82.60
38606;DHT22;24365;48.446;8.850;2023-05-16T10:17:05;11.60;81.30
38606;DHT22;24365;48.446;8.850;2023-05-16T10:22:07;11.70;81.90
38606;DHT22;24365;48.446;8.850;2023-05-16T10:27:10;11.80;81.70
38606;DHT22;24365;48.446;8.850;2023-05-16T10:32:12;12.00;81.50
38606;DHT22;24365;48.446;8.850;2023-05-16T10:37:14;12.30;81.70
38606;DHT22;24365;48.446;8.850;2023-05-16T10:42:15;12.30;80.80
38606;DHT22;24365;48.446;8.850;2023-05-16T10:47:18;12.40;76.80
38606;DHT22;24365;48.446;8.850;2023-05-16T10:52:32;12.20;79.00
38606;DHT22;24365;48.446;8.850;2023-05-16T10:57:34;12.20;77.60
38606;DHT22;24365;48.446;8.850;2023-05-16T11:02:41;12.20;78.10
38606;DHT22;24365;48.446;8.850;2023-05-16T11:07:43;12.10;77.50
38606;DHT22;24365;48.446;8.850;2023-05-16T11:12:48;12.00;77.90
38606;DHT22;24365;48.446;8.850;2023-05-16T11:18:13;12.00;78.50
38606;DHT22;24365;48.446;8.850;2023-05-16T11:28:17;12.10;79.20
38606;DHT22;24365;48.446;8.850;2023-05-16T11:33:20;12.10;78.40
38606;DHT22;24365;48.446;8.850;2023-05-16T11:38:21;12.00;77.50
38606;DHT22;24365;48.446;8.850;2023-05-16T11:43:23;12.00;77.90
38606;DHT22;24365;48.446;8.850;2023-05-16T11:48:24;11.90;77.90
38606;DHT22;24365;48.446;8.850;2023-05-16T11:53:26;11.80;78.90
38606;DHT22;24365;48.446;8.850;2023-05-16T11:58:27;11.80;80.40
38606;DHT22;24365;48.446;8.850;2023-05-16T12:03:30;11.90;79.40
38606;DHT22;24365;48.446;8.850;2023-05-16T12:08:35;11.90;78.80
38606;DHT22;24365;48.446;8.850;2023-05-16T12:13:36;11.90;78.30
38606;DHT22;24365;48.446;8.850;2023-05-16T12:18:37;11.90;78.60
38606;DHT22;24365;48.446;8.850;2023-05-16T12:23:41;12.00;78.80
38606;DHT22;24365;48.446;8.850;2023-05-16T12:28:43;12.00;77.70
38606;DHT22;24365;48.446;8.850;2023-05-16T12:33:44;12.10;76.00
38606;DHT22;24365;48.446;8.850;2023-05-16T12:38:46;12.00;76.70
38606;DHT22;24365;48.446;8.850;2023-05-16T12:43:48;12.00;77.80
38606;DHT22;24365;48.446;8.850;2023-05-16T12:49:01;12.00;77.90
38606;DHT22;24365;48.446;8.850;2023-05-16T12:54:11;12.00;76.90
38606;DHT22;24365;48.446;8.850;2023-05-16T12:59:13;11.80;75.40
38606;DHT22;24365;48.446;8.850;2023-05-16T13:04:14;11.70;77.10
38606;DHT22;24365;48.446;8.850;2023-05-16T13:09:18;11.50;77.70
38606;DHT22;24365;48.446;8.850;2023-05-16T13:14:19;11.50;77.60
38606;DHT22;24365;48.446;8.850;2023-05-16T13:19:20;11.30;77.40
38606;DHT22;24365;48.446;8.850;2023-05-16T13:24:25;11.30;77.50
38606;DHT22;24365;48.446;8.850;2023-05-16T13:29:26;11.20;78.60
38606;DHT22;24365;48.446;8.850;2023-05-16T13:34:28;11.10;77.40
38606;DHT22;24365;48.446;8.850;2023-05-16T13:39:29;11.00;78.50
38606;DHT22;24365;48.446;8.850;2023-05-16T13:44:30;11.00;77.30
38606;DHT22;24365;48.446;8.850;2023-05-16T13:49:31;10.80;78.70
38606;DHT22;24365;48.446;8.850;2023-05-16T13:54:32;10.80;78.20
38606;DHT22;24365;48.446;8.850;2023-05-16T13:59:33;10.80;77.30
38606;DHT22;24365;48.446;8.850;2023-05-16T14:04:37;10.80;78.00
38606;DHT22;24365;48.446;8.850;2023-05-16T14:09:38;11.00;77.10
38606;DHT22;24365;48.446;8.850;2023-05-16T14:14:39;11.00;77.20
38606;DHT22;24365;48.446;8.850;2023-05-16T14:19:40;11.10;76.20
38606;DHT22;24365;48.446;8.850;2023-05-16T14:24:41;11.30;74.40
38606;DHT22;24365;48.446;8.850;2023-05-16T14:29:42;11.40;74.20
38606;DHT22;24365;48.446;8.850;2023-05-16T14:34:43;11.30;74.00
38606;DHT22;24365;48.446;8.850;2023-05-16T14:39:46;11.30;74.40
38606;DHT22;24365;48.446;8.850;2023-05-16T14:44:48;11.30;72.20
38606;DHT22;24365;48.446;8.850;2023-05-16T14:49:49;11.20;72.70
38606;DHT22;24365;48.446;8.850;2023-05-16T14:54:50;11.10;72.00
38606;DHT22;24365;48.446;8.850;2023-05-16T14:59:51;11.10;74.10
38606;DHT22;24365;48.446;8.850;2023-05-16T15:04:52;11.20;74.20
38606;DHT22;24365;48.446;8.850;2023-05-16T15:09:54;11.20;72.80
38606;DHT22;24365;48.446;8.850;2023-05-16T15:14:55;11.20;72.10
38606;DHT22;24365;48.446;8.850;2023-05-16T15:19:57;11.20;72.90
38606;DHT22;24365;48.446;8.850;2023-05-16T15:24:59;11.20;73.60
38606;DHT22;24365;48.446;8.850;2023-05-16T15:30:00;11.30;73.50
38606;DHT22;24365;48.446;8.850;2023-05-16T15:35:01;11.20;74.10
38606;DHT22;24365;48.446;8.850;2023-05-16T15:40:04;11.20;72.90
38606;DHT22;24365;48.446;8.850;2023-05-16T15:45:06;11.20;71.10
38606;DHT22;24365;48.446;8.850;2023-05-16T15:50:10;11.10;72.20
38606;DHT22;24365;48.446;8.850;2023-05-16T15:55:13;11.10;73.20
38606;DHT22;24365;48.446;8.850;2023-05-16T16:00:15;11.20;72.00
38606;DHT22;24365;48.446;8.850;2023-05-16T16:05:20;11.20;71.20
38606;DHT22;24365;48.446;8.850;2023-05-16T16:10:21;11.30;72.20
38606;DHT22;24365;48.446;8.850;2023-05-16T16:15:23;11.30;70.40
38606;DHT22;24365;48.446;8.850;2023-05-16T16:20:25;11.30;70.70
38606;DHT22;24365;48.446;8.850;2023-05-16T16:25:26;11.30;71.30
38606;DHT22;24365;48.446;8.850;2023-05-16T16:30:27;11.40;71.10
38606;DHT22;24365;48.446;8.850;2023-05-16T16:35:28;11.30;70.60
38606;DHT22;24365;48.446;8.850;2023-05-16T16:40:29;11.40;68.10
38606;DHT22;24365;48.446;8.850;2023-05-16T16:45:31;11.40;69.80
38606;DHT22;24365;48.446;8.850;2023-05-16T16:50:32;11.40;67.80
38606;DHT22;24365;48.446;8.850;2023-05-16T16:55:36;11.40;66.10
38606;DHT22;24365;48.446;8.850;2023-05-16T17:00:38;11.40;66.40
38606;DHT22;24365;48.446;8.850;2023-05-16T17:05:40;11.50;66.60
38606;DHT22;24365;48.446;8.850;2023-05-16T17:10:42;11.40;65.40
38606;DHT22;24365;48.446;8.850;2023-05-16T17:15:45;11.40;64.90
38606;DHT22;24365;48.446;8.850;2023-05-16T17:20:46;11.30;67.20
38606;DHT22;24365;48.446;8.850;2023-05-16T17:25:47;11.20;62.70
38606;DHT22;24365;48.446;8.850;2023-05-16T17:30:48;11.20;64.60
38606;DHT22;24365;48.446;8.850;2023-05-16T17:35:50;11.30;62.40
38606;DHT22;24365;48.446;8.850;2023-05-16T17:40:56;11.30;61.70
38606;DHT22;24365;48.446;8.850;2023-05-16T17:45:57;11.30;62.10
38606;DHT22;24365;48.446;8.850;2023-05-16T17:50:59;11.30;60.90
38606;DHT22;24365;48.446;8.850;2023-05-16T17:56:00;11.20;61.00
38606;DHT22;24365;48.446;8.850;2023-05-16T18:01:02;11.10;63.40
38606;DHT22;24365;48.446;8.850;2023-05-16T18:06:04;11.10;63.90
38606;DHT22;24365;48.446;8.850;2023-05-16T18:11:06;11.10;64.90
38606;DHT22;24365;48.446;8.850;2023-05-16T18:16:07;11.00;63.40
38606;DHT22;24365;48.446;8.850;2023-05-16T18:21:10;11.00;65.40
38606;DHT22;24365;48.446;8.850;2023-05-16T18:26:11;10.90;61.40
38606;DHT22;24365;48.446;8.850;2023-05-16T18:31:12;10.80;63.20
38606;DHT22;24365;48.446;8.850;2023-05-16T18:36:14;10.80;65.20
38606;DHT22;24365;48.446;8.850;2023-05-16T18:41:15;10.80;63.90
38606;DHT22;24365;48.446;8.850;2023-05-16T18:46:16;10.70;65.10
38606;DHT22;24365;48.446;8.850;2023-05-16T18:51:17;10.60;64.70
38606;DHT22;24365;48.446;8.850;2023-05-16T18:56:19;10.60;66.20
38606;DHT22;24365;48.446;8.850;2023-05-16T19:01:21;10.60;65.80
38606;DHT22;24365;48.446;8.850;2023-05-16T19:06:23;10.60;67.00
38606;DHT22;24365;48.446;8.850;2023-05-16T19:11:24;10.50;63.20
38606;DHT22;24365;48.446;8.850;2023-05-16T19:16:27;10.20;64.80
38606;DHT22;24365;48.446;8.850;2023-05-16T19:21:28;10.30;66.20
38606;DHT22;24365;48.446;8.850;2023-05-16T19:26:29;10.20;64.90
38606;DHT22;24365;48.446;8.850;2023-05-16T19:31:30;10.10;64.60
38606;DHT22;24365;48.446;8.850;2023-05-16T19:36:31;10.00;66.90
38606;DHT22;24365;48.446;8.850;2023-05-16T19:41:33;10.00;66.50
38606;DHT22;24365;48.446;8.850;2023-05-16T19:46:34;10.00;65.00
38606;DHT22;24365;48.446;8.850;2023-05-16T19:51:35;9.90;64.00
38606;DHT22;24365;48.446;8.850;2023-05-16T19:56:36;9.90;65.70
38606;DHT22;24365;48.446;8.850;2023-05-16T20:01:37;9.80;66.20
38606;DHT22;24365;48.446;8.850;2023-05-16T20:06:38;9.70;65.60
38606;DHT22;24365;48.446;8.850;2023-05-16T20:11:39;9.70;65.90
38606;DHT22;24365;48.446;8.850;2023-05-16T20:16:40;9.70;66.00
38606;DHT22;24365;48.446;8.850;2023-05-16T20:21:41;9.60;66.20
38606;DHT22;24365;48.446;8.850;2023-05-16T20:26:42;9.60;66.30
38606;DHT22;24365;48.446;8.850;2023-05-16T20:31:43;9.50;66.80
38606;DHT22;24365;48.446;8.850;2023-05-16T20:36:44;9.50;67.40
38606;DHT22;24365;48.446;8.850;2023-05-16T20:41:45;9.30;64.60
38606;DHT22;24365;48.446;8.850;2023-05-16T20:46:45;9.20;65.60
38606;DHT22;24365;48.446;8.850;2023-05-16T20:51:47;9.20;65.80
38606;DHT22;24365;48.446;8.850;2023-05-16T20:56:47;9.10;65.70
38606;DHT22;24365;48.446;8.850;2023-05-16T21:01:49;9.10;66.20
38606;DHT22;24365;48.446;8.850;2023-05-16T21:06:50;9.00;66.90
38606;DHT22;24365;48.446;8.850;2023-05-16T21:11:51;8.90;67.40
38606;DHT22;24365;48.446;8.850;2023-05-16T21:16:52;8.90;66.40
38606;DHT22;24365;48.446;8.850;2023-05-16T21:21:53;8.80;67.50
38606;DHT22;24365;48.446;8.850;2023-05-16T21:26:54;8.70;68.90
38606;DHT22;24365;48.446;8.850;2023-05-16T21:31:55;8.60;68.10
38606;DHT22;24365;48.446;8.850;2023-05-16T21:36:55;8.60;68.00
38606;DHT22;24365;48.446;8.850;2023-05-16T21:41:58;8.60;67.70
38606;DHT22;24365;48.446;8.850;2023-05-16T21:47:00;8.60;68.40
38606;DHT22;24365;48.446;8.850;2023-05-16T21:52:01;8.50;69.20
38606;DHT22;24365;48.446;8.850;2023-05-16T21:57:02;8.40;69.90
38606;DHT22;24365;48.446;8.850;2023-05-16T22:02:03;8.30;70.20
38606;DHT22;24365;48.446;8.850;2023-05-16T22:07:04;8.30;70.50
38606;DHT22;24365;48.446;8.850;2023-05-16T22:12:05;8.30;71.50
38606;DHT22;24365;48.446;8.850;2023-05-16T22:17:06;8.10;71.20
38606;DHT22;24365;48.446;8.850;2023-05-16T22:22:08;8.10;71.40
38606;DHT22;24365;48.446;8.850;2023-05-16T22:27:08;8.00;70.90
38606;DHT22;24365;48.446;8.850;2023-05-16T22:32:10;8.00;71.20
38606;DHT22;24365;48.446;8.850;2023-05-16T22:37:11;7.90;71.70
38606;DHT22;24365;48.446;8.850;2023-05-16T22:42:12;7.80;72.10
38606;DHT22;24365;48.446;8.850;2023-05-16T22:47:13;7.80;70.60
38606;DHT22;24365;48.446;8.850;2023-05-16T22:52:14;7.70;71.00
38606;DHT22;24365;48.446;8.850;2023-05-16T22:57:15;7.60;71.20
38606;DHT22;24365;48.446;8.850;2023-05-16T23:02:16;7.60;70.70
38606;DHT22;24365;48.446;8.850;2023-05-16T23:07:17;7.40;71.20
38606;DHT22;24365;48.446;8.850;2023-05-16T23:12:18;7.30;72.10
38606;DHT22;24365;48.446;8.850;2023-05-16T23:17:20;7.20;72.00
38606;DHT22;24365;48.446;8.850;2023-05-16T23:22:21;7.00;68.80
38606;DHT22;24365;48.446;8.850;2023-05-16T23:27:22;7.10;71.00
38606;DHT22;24365;48.446;8.850;2023-05-16T23:32:23;7.10;69.80
38606;DHT22;24365;48.446;8.850;2023-05-16T23:37:24;7.00;67.00
38606;DHT22;24365;48.446;8.850;2023-05-16T23:42:25;7.00;67.10
38606;DHT22;24365;48.446;8.850;2023-05-16T23:47:26;7.00;67.00
38606;DHT22;24365;48.446;8.850;2023-05-16T23:52:27;7.00;68.70
38606;DHT22;24365;48.446;8.850;2023-05-16T23:57:28;6.90;67.80
